Time;durP1;ratioP1;P1;durP2;ratioP2;P2;SDS_P1;SDS_P2;PMS_P1;PMS_P2;Temp;Humidity;BMP_temperature;BMP_pressure;BME280_temperature;BME280_humidity;BME280_pressure;Samples;Min_cycle;Max_cycle;Signal;HPM_P1;HPM_P2
2024/02/28 00:00:53;;;;;;;;;;;5.40;99.90;;;;;;4967901;28;19922;-79
2024/02/28 00:03:18;;;;;;;;;;;5.30;99.90;;;;;;4978674;28;20002;-79
2024/02/28 00:05:45;;;;;;;;;;;5.30;99.90;;;;;;4935010;28;19922;-79
2024/02/28 00:08:11;;;;;;;;;;;5.30;99.90;;;;;;4974666;28;19924;-79
2024/02/28 00:10:37;;;;;;;;;;;5.30;99.90;;;;;;4959784;28;19918;-79
2024/02/28 00:13:04;;;;;;;;;;;5.30;99.90;;;;;;4932476;28;19922;-79
2024/02/28 00:15:29;;;;;;;;;;;5.30;99.90;;;;;;4944216;28;19914;-79
2024/02/28 00:17:55;;;;;;;;;;;5.30;99.90;;;;;;4944074;28;19969;-79
2024/02/28 00:20:21;;;;;;;;;;;5.30;99.90;;;;;;4944330;29;19918;-79
2024/02/28 00:22:47;;;;;;;;;;;5.40;99.90;;;;;;4932128;28;19915;-79
2024/02/28 00:25:14;;;;;;;;;;;5.40;99.90;;;;;;4924670;29;19936;-79
2024/02/28 00:27:40;;;;;;;;;;;5.40;99.90;;;;;;4927972;28;19944;-79
2024/02/28 00:30:06;;;;;;;;;;;5.30;99.90;;;;;;4945972;28;20310;-80
2024/02/28 00:32:32;;;;;;;;;;;5.30;99.90;;;;;;4944010;29;19914;-80
2024/02/28 00:34:58;;;;;;;;;;;5.30;99.90;;;;;;4937984;28;19956;-80
2024/02/28 00:37:23;;;;;;;;;;;5.30;99.90;;;;;;4943512;29;19946;-80
2024/02/28 00:39:49;;;;;;;;;;;5.20;99.90;;;;;;4928372;29;19952;-80
2024/02/28 00:42:15;;;;;;;;;;;5.20;99.90;;;;;;4913583;29;19914;-80
2024/02/28 00:44:42;;;;;;;;;;;5.20;99.90;;;;;;4914552;29;20220;-79
2024/02/28 00:47:08;;;;;;;;;;;5.20;99.90;;;;;;4943320;28;19914;-78
2024/02/28 00:49:34;;;;;;;;;;;5.10;99.90;;;;;;4953597;29;19921;-79
2024/02/28 00:52:00;;;;;;;;;;;5.20;99.90;;;;;;4944070;29;20679;-79
2024/02/28 00:54:26;;;;;;;;;;;5.20;99.90;;;;;;4933636;29;19923;-79
2024/02/28 00:56:55;;;;;;;;;;;5.20;99.90;;;;;;4972439;28;20294;-79
2024/02/28 00:59:20;;;;;;;;;;;5.20;99.90;;;;;;4962779;28;20310;-80
2024/02/28 01:01:48;;;;;;;;;;;5.20;99.90;;;;;;4946966;28;19914;-80
2024/02/28 01:04:13;;;;;;;;;;;5.00;99.90;;;;;;4945059;28;20056;-80
2024/02/28 01:06:39;;;;;;;;;;;5.00;99.90;;;;;;4948156;28;19976;-80
2024/02/28 01:09:04;;;;;;;;;;;5.00;99.90;;;;;;4946806;28;19922;-80
2024/02/28 01:11:30;;;;;;;;;;;5.00;99.90;;;;;;4946755;28;20021;-79
2024/02/28 01:13:59;;;;;;;;;;;5.00;99.90;;;;;;4976439;28;19926;-80
2024/02/28 01:16:29;;;;;;;;;;;4.90;99.90;;;;;;4982322;28;20048;-79
2024/02/28 01:18:56;;;;;;;;;;;4.90;99.90;;;;;;4965899;28;20311;-79
2024/02/28 01:21:22;;;;;;;;;;;4.80;99.90;;;;;;4949119;28;19930;-80
2024/02/28 01:23:47;;;;;;;;;;;4.70;99.90;;;;;;4950405;28;20286;-80
2024/02/28 01:26:13;;;;;;;;;;;4.70;99.90;;;;;;4965662;28;19918;-80
2024/02/28 01:28:39;;;;;;;;;;;4.70;99.90;;;;;;4965799;28;20223;-80
2024/02/28 01:31:05;;;;;;;;;;;4.70;99.90;;;;;;4965940;28;19925;-80
2024/02/28 01:33:32;;;;;;;;;;;4.70;99.90;;;;;;4940014;28;19929;-80
2024/02/28 01:35:58;;;;;;;;;;;4.70;99.90;;;;;;4997126;28;19918;-80
2024/02/28 01:38:24;;;;;;;;;;;4.70;99.90;;;;;;4946586;28;19914;-80
2024/02/28 01:40:50;;;;;;;;;;;4.70;99.90;;;;;;4972973;28;20247;-80
2024/02/28 01:43:17;;;;;;;;;;;4.70;99.90;;;;;;4941483;28;20005;-80
2024/02/28 01:45:44;;;;;;;;;;;4.70;99.90;;;;;;4964641;28;20323;-80
2024/02/28 01:48:10;;;;;;;;;;;4.70;99.90;;;;;;4978465;28;20004;-80
2024/02/28 01:50:37;;;;;;;;;;;4.70;99.90;;;;;;4930138;28;19949;-80
2024/02/28 01:53:03;;;;;;;;;;;4.70;99.90;;;;;;4930789;28;20205;-80
2024/02/28 01:55:29;;;;;;;;;;;4.80;99.90;;;;;;4941000;28;19921;-80
2024/02/28 02:22:54;;;;;;;;;;;4.60;99.90;;;;;;4979223;28;20012;-80
2024/02/28 02:25:20;;;;;;;;;;;4.60;99.90;;;;;;4948591;28;20332;-80
2024/02/28 02:27:45;;;;;;;;;;;4.60;99.90;;;;;;4983372;28;19917;-80
2024/02/28 02:30:11;;;;;;;;;;;4.60;99.90;;;;;;4966655;28;19918;-80
2024/02/28 02:32:38;;;;;;;;;;;4.60;99.90;;;;;;4983606;28;19957;-80
2024/02/28 02:35:04;;;;;;;;;;;4.60;99.90;;;;;;4976879;28;19973;-80
2024/02/28 02:37:30;;;;;;;;;;;4.50;99.90;;;;;;4948025;28;19921;-80
2024/02/28 02:39:58;;;;;;;;;;;4.40;99.90;;;;;;4948589;28;20608;-80
2024/02/28 02:42:23;;;;;;;;;;;4.40;99.90;;;;;;4987205;28;19925;-80
2024/02/28 02:44:49;;;;;;;;;;;4.40;99.90;;;;;;4948392;28;19922;-80
2024/02/28 02:47:15;;;;;;;;;;;4.50;99.90;;;;;;4967631;28;20322;-79
2024/02/28 02:49:41;;;;;;;;;;;4.50;99.90;;;;;;4961005;28;20688;-80
2024/02/28 02:52:08;;;;;;;;;;;4.50;99.90;;;;;;4966817;28;19918;-80
2024/02/28 02:54:34;;;;;;;;;;;4.50;99.90;;;;;;4979550;28;19988;-80
2024/02/28 02:57:00;;;;;;;;;;;4.50;99.90;;;;;;4963455;28;20600;-80
2024/02/28 02:59:26;;;;;;;;;;;4.50;99.90;;;;;;4947688;28;19913;-80
2024/02/28 03:01:55;;;;;;;;;;;4.40;99.90;;;;;;4963845;28;20032;-80
2024/02/28 03:04:21;;;;;;;;;;;4.40;99.90;;;;;;4992586;28;19965;-80
2024/02/28 03:06:47;;;;;;;;;;;4.50;99.90;;;;;;4980515;28;20004;-79
2024/02/28 03:09:13;;;;;;;;;;;4.40;99.90;;;;;;4948054;28;19941;-80
2024/02/28 03:11:41;;;;;;;;;;;4.50;99.90;;;;;;4933572;28;19913;-80
2024/02/28 03:14:07;;;;;;;;;;;4.40;99.90;;;;;;4948079;28;20004;-79
2024/02/28 03:16:32;;;;;;;;;;;4.40;99.90;;;;;;4947584;28;19968;-80
2024/02/28 03:18:58;;;;;;;;;;;4.40;99.90;;;;;;4947715;28;20044;-80
2024/02/28 03:21:24;;;;;;;;;;;4.40;99.90;;;;;;4960853;28;19928;-79
2024/02/28 03:23:49;;;;;;;;;;;4.40;99.90;;;;;;4927265;28;19949;-80
2024/02/28 03:26:15;;;;;;;;;;;4.40;99.90;;;;;;4955192;29;20322;-79
2024/02/28 03:28:41;;;;;;;;;;;4.40;99.90;;;;;;4924522;29;19923;-79
2024/02/28 03:31:07;;;;;;;;;;;4.30;99.90;;;;;;4928435;28;20613;-80
2024/02/28 03:33:35;;;;;;;;;;;4.30;99.90;;;;;;4943343;28;19929;-79
2024/02/28 03:36:01;;;;;;;;;;;4.40;99.90;;;;;;4925244;29;19922;-80
2024/02/28 03:38:26;;;;;;;;;;;4.30;99.90;;;;;;4941093;29;19925;-80
2024/02/28 03:40:52;;;;;;;;;;;4.30;99.90;;;;;;4950592;28;20005;-80
2024/02/28 03:43:18;;;;;;;;;;;4.30;99.90;;;;;;4975343;28;19915;-80
2024/02/28 03:45:43;;;;;;;;;;;4.30;99.90;;;;;;4959648;28;20057;-80
2024/02/28 03:48:09;;;;;;;;;;;4.30;99.90;;;;;;4959385;28;19914;-79
2024/02/28 03:50:35;;;;;;;;;;;4.30;99.90;;;;;;4943606;28;19921;-80
2024/02/28 03:53:01;;;;;;;;;;;4.30;99.90;;;;;;4927402;28;19921;-80
2024/02/28 03:55:27;;;;;;;;;;;4.20;99.90;;;;;;4927638;28;20377;-80
2024/02/28 03:57:52;;;;;;;;;;;4.20;99.90;;;;;;4959067;28;19918;-80
2024/02/28 04:00:18;;;;;;;;;;;4.30;99.90;;;;;;4930422;28;19922;-80
2024/02/28 04:02:45;;;;;;;;;;;4.20;99.90;;;;;;4959153;28;19915;-80
2024/02/28 04:05:11;;;;;;;;;;;4.20;99.90;;;;;;4945790;28;19918;-80
2024/02/28 04:07:37;;;;;;;;;;;4.20;99.90;;;;;;4931673;28;19920;-80
2024/02/28 04:10:11;;;;;;;;;;;4.10;99.90;;;;;;4964253;28;19929;-80
2024/02/28 04:12:36;;;;;;;;;;;4.10;99.90;;;;;;4931428;28;19913;-80
2024/02/28 04:15:02;;;;;;;;;;;4.10;99.90;;;;;;4928354;29;19926;-80
2024/02/28 04:17:28;;;;;;;;;;;4.10;99.90;;;;;;4944073;29;19973;-80
2024/02/28 04:19:57;;;;;;;;;;;4.10;99.90;;;;;;4928322;29;20013;-79
2024/02/28 04:22:23;;;;;;;;;;;4.10;99.90;;;;;;4950553;28;20325;-79
2024/02/28 04:24:48;;;;;;;;;;;4.00;99.90;;;;;;4982352;28;19925;-80
2024/02/28 04:27:15;;;;;;;;;;;4.10;99.90;;;;;;4982457;28;19917;-79
2024/02/28 04:29:41;;;;;;;;;;;4.00;99.90;;;;;;4947347;28;19914;-79
2024/02/28 04:32:07;;;;;;;;;;;3.90;99.90;;;;;;4949064;28;20010;-79
2024/02/28 04:34:32;;;;;;;;;;;4.00;99.90;;;;;;4966527;28;19918;-79
2024/02/28 04:36:58;;;;;;;;;;;4.10;99.90;;;;;;4985040;28;20663;-79
2024/02/28 04:39:24;;;;;;;;;;;4.00;99.90;;;;;;4970891;28;19921;-79
2024/02/28 04:41:50;;;;;;;;;;;4.00;99.90;;;;;;4971384;28;20016;-79
2024/02/28 04:44:15;;;;;;;;;;;4.00;99.90;;;;;;4975070;28;19942;-80
2024/02/28 04:46:41;;;;;;;;;;;4.00;99.90;;;;;;4956078;28;19917;-80
2024/02/28 04:49:09;;;;;;;;;;;4.00;99.90;;;;;;4978736;28;20627;-79
2024/02/28 04:51:34;;;;;;;;;;;4.00;99.90;;;;;;4982916;28;19921;-80
2024/02/28 04:54:00;;;;;;;;;;;4.00;99.90;;;;;;4966991;28;19921;-80
2024/02/28 04:56:26;;;;;;;;;;;4.00;99.90;;;;;;4943406;28;19918;-80
2024/02/28 04:58:54;;;;;;;;;;;4.00;99.90;;;;;;4947749;28;20330;-80
2024/02/28 05:01:19;;;;;;;;;;;4.00;99.90;;;;;;4969292;28;19992;-80
2024/02/28 05:03:45;;;;;;;;;;;4.00;99.90;;;;;;4937694;28;19957;-81
2024/02/28 05:06:11;;;;;;;;;;;4.00;99.90;;;;;;4948097;28;19914;-80
2024/02/28 05:08:40;;;;;;;;;;;4.00;99.90;;;;;;4948088;28;19914;-80
2024/02/28 05:11:05;;;;;;;;;;;4.00;99.90;;;;;;4947188;28;19954;-80
2024/02/28 05:13:34;;;;;;;;;;;4.10;99.90;;;;;;4951827;28;20369;-80
2024/02/28 05:16:00;;;;;;;;;;;4.00;99.90;;;;;;4965944;28;19914;-80
2024/02/28 05:18:33;;;;;;;;;;;4.10;99.90;;;;;;4982389;28;19914;-80
2024/02/28 05:21:04;;;;;;;;;;;4.10;99.90;;;;;;4981610;28;19913;-80
2024/02/28 05:23:30;;;;;;;;;;;4.00;99.90;;;;;;4948469;28;19926;-80
2024/02/28 05:25:57;;;;;;;;;;;4.10;99.90;;;;;;4949756;28;19971;-80
2024/02/28 05:28:23;;;;;;;;;;;4.00;99.90;;;;;;4965774;28;19972;-80
2024/02/28 05:30:49;;;;;;;;;;;4.00;99.90;;;;;;4970404;28;20306;-80
2024/02/28 05:33:24;;;;;;;;;;;4.00;99.90;;;;;;4964739;28;19921;-80
2024/02/28 05:35:50;;;;;;;;;;;4.00;99.90;;;;;;4947549;28;19979;-81
2024/02/28 05:38:15;;;;;;;;;;;4.00;99.90;;;;;;4964443;28;19914;-80
2024/02/28 05:40:41;;;;;;;;;;;4.00;99.90;;;;;;4947224;28;19913;-80
2024/02/28 05:43:07;;;;;;;;;;;3.90;99.90;;;;;;4947760;28;19927;-80
2024/02/28 05:45:33;;;;;;;;;;;3.90;99.90;;;;;;4948487;28;19922;-80
2024/02/28 05:47:59;;;;;;;;;;;3.90;99.90;;;;;;4946420;28;20004;-80
2024/02/28 05:50:34;;;;;;;;;;;3.90;99.90;;;;;;4961245;28;19917;-79
2024/02/28 05:53:02;;;;;;;;;;;3.90;99.90;;;;;;4950478;28;20636;-81
2024/02/28 05:55:28;;;;;;;;;;;3.90;99.90;;;;;;4964627;28;19925;-80
2024/02/28 05:57:53;;;;;;;;;;;3.90;99.90;;;;;;4965698;28;19918;-79
2024/02/28 06:00:19;;;;;;;;;;;3.90;99.90;;;;;;4972723;28;19913;-80
2024/02/28 06:02:48;;;;;;;;;;;3.90;99.90;;;;;;4969438;28;19918;-80
2024/02/28 06:05:15;;;;;;;;;;;3.90;99.90;;;;;;4954273;28;20637;-80
2024/02/28 06:07:40;;;;;;;;;;;3.80;99.90;;;;;;4951017;28;19918;-80
2024/02/28 06:10:06;;;;;;;;;;;3.80;99.90;;;;;;4946190;28;19921;-81
2024/02/28 06:12:35;;;;;;;;;;;3.70;99.90;;;;;;4949553;28;19914;-80
2024/02/28 06:15:01;;;;;;;;;;;3.80;99.90;;;;;;4949050;28;19920;-80
2024/02/28 06:17:29;;;;;;;;;;;3.70;99.90;;;;;;4948590;28;19918;-79
2024/02/28 06:19:55;;;;;;;;;;;3.70;99.90;;;;;;4948055;28;19975;-80
2024/02/28 06:22:23;;;;;;;;;;;3.70;99.90;;;;;;4953492;28;19926;-79
2024/02/28 06:24:49;;;;;;;;;;;3.70;99.90;;;;;;4929211;28;19937;-79
2024/02/28 06:27:17;;;;;;;;;;;3.80;99.90;;;;;;4945510;28;19917;-80
2024/02/28 06:29:43;;;;;;;;;;;3.70;99.90;;;;;;4929118;28;19914;-80
2024/02/28 06:32:09;;;;;;;;;;;3.80;99.90;;;;;;4929381;28;19924;-80
2024/02/28 06:34:35;;;;;;;;;;;3.80;99.90;;;;;;4942161;29;19929;-80
2024/02/28 06:37:01;;;;;;;;;;;3.60;99.90;;;;;;4942754;29;19914;-80
2024/02/28 06:39:29;;;;;;;;;;;3.60;99.90;;;;;;4926483;29;20328;-80
2024/02/28 06:42:01;;;;;;;;;;;3.60;99.90;;;;;;4929263;28;19972;-79
2024/02/28 06:44:27;;;;;;;;;;;3.40;99.90;;;;;;4929767;28;19964;-79
2024/02/28 06:46:53;;;;;;;;;;;3.50;99.90;;;;;;4944926;28;19921;-79
2024/02/28 06:49:18;;;;;;;;;;;3.50;99.90;;;;;;4961427;28;19914;-80
2024/02/28 06:51:44;;;;;;;;;;;3.50;99.90;;;;;;4961996;28;20318;-79
2024/02/28 06:54:10;;;;;;;;;;;3.50;99.90;;;;;;4949995;28;20021;-79
2024/02/28 06:56:36;;;;;;;;;;;3.50;99.90;;;;;;4941191;28;20012;-80
2024/02/28 06:59:03;;;;;;;;;;;3.50;99.90;;;;;;4977625;28;20386;-80
2024/02/28 07:01:29;;;;;;;;;;;3.50;99.90;;;;;;4961178;28;19976;-79
2024/02/28 07:03:55;;;;;;;;;;;3.50;99.90;;;;;;4944570;28;19922;-80
2024/02/28 07:06:21;;;;;;;;;;;3.50;99.90;;;;;;4944477;28;19918;-79
2024/02/28 07:08:46;;;;;;;;;;;3.50;99.90;;;;;;4927805;28;20443;-80
2024/02/28 07:11:13;;;;;;;;;;;3.60;99.90;;;;;;4950990;28;20000;-80
2024/02/28 07:13:40;;;;;;;;;;;3.50;99.90;;;;;;4949767;28;19953;-80
2024/02/28 07:16:06;;;;;;;;;;;3.60;99.90;;;;;;4949720;28;19941;-80
2024/02/28 07:18:38;;;;;;;;;;;3.40;99.90;;;;;;4934941;28;19918;-80
2024/02/28 07:21:06;;;;;;;;;;;3.40;99.90;;;;;;4960870;28;19913;-80
2024/02/28 07:23:32;;;;;;;;;;;3.40;99.90;;;;;;4980642;28;19922;-80
2024/02/28 07:25:58;;;;;;;;;;;3.40;99.90;;;;;;4964138;28;20671;-79
2024/02/28 07:28:24;;;;;;;;;;;3.40;99.90;;;;;;4949326;28;19979;-79
2024/02/28 07:30:50;;;;;;;;;;;3.40;99.90;;;;;;4980270;28;19976;-79
2024/02/28 07:33:16;;;;;;;;;;;3.30;99.90;;;;;;4963068;28;19980;-80
2024/02/28 07:35:48;;;;;;;;;;;3.30;99.90;;;;;;4963456;28;19913;-79
2024/02/28 07:38:20;;;;;;;;;;;3.40;99.90;;;;;;4964941;28;19939;-80
2024/02/28 07:40:46;;;;;;;;;;;3.40;99.90;;;;;;4962310;28;19925;-80
2024/02/28 07:43:11;;;;;;;;;;;3.50;99.90;;;;;;4957807;28;19918;-80
2024/02/28 07:45:37;;;;;;;;;;;3.60;99.90;;;;;;4981488;28;19948;-80
2024/02/28 07:48:03;;;;;;;;;;;3.60;99.90;;;;;;4992343;28;19984;-80
2024/02/28 07:50:28;;;;;;;;;;;3.60;99.90;;;;;;4946875;28;19937;-80
2024/02/28 07:52:55;;;;;;;;;;;3.50;99.90;;;;;;4962601;28;20353;-80
2024/02/28 07:55:22;;;;;;;;;;;3.50;99.90;;;;;;4946543;28;20618;-80
2024/02/28 07:57:50;;;;;;;;;;;3.50;99.90;;;;;;4980514;28;19914;-80
2024/02/28 08:00:18;;;;;;;;;;;3.50;99.90;;;;;;4957689;28;19922;-80
2024/02/28 08:02:44;;;;;;;;;;;3.60;99.90;;;;;;4963335;28;20321;-80
2024/02/28 08:05:10;;;;;;;;;;;3.60;99.90;;;;;;4944916;28;19922;-79
2024/02/28 08:07:36;;;;;;;;;;;3.60;99.90;;;;;;4955915;28;19980;-79
2024/02/28 08:10:06;;;;;;;;;;;3.60;99.90;;;;;;4959476;28;19917;-79
2024/02/28 08:12:32;;;;;;;;;;;3.70;99.90;;;;;;4944453;28;19932;-79
2024/02/28 08:14:58;;;;;;;;;;;3.70;99.90;;;;;;4977668;28;20529;-79
2024/02/28 08:17:24;;;;;;;;;;;3.80;99.90;;;;;;4963440;28;19976;-79
2024/02/28 08:19:50;;;;;;;;;;;3.80;99.90;;;;;;4963021;28;19926;-80
2024/02/28 08:22:16;;;;;;;;;;;3.80;99.90;;;;;;4952110;28;19973;-79
2024/02/28 08:24:41;;;;;;;;;;;3.90;99.90;;;;;;4929035;28;19928;-79
2024/02/28 08:27:07;;;;;;;;;;;3.90;99.90;;;;;;4942678;28;19918;-79
2024/02/28 08:29:35;;;;;;;;;;;3.90;99.90;;;;;;4943233;28;20235;-79
2024/02/28 08:32:01;;;;;;;;;;;3.90;99.90;;;;;;4951914;28;19922;-78
2024/02/28 08:34:26;;;;;;;;;;;3.80;99.90;;;;;;4943799;28;19922;-79
2024/02/28 08:36:52;;;;;;;;;;;3.80;99.90;;;;;;4963567;28;19918;-82
2024/02/28 08:39:18;;;;;;;;;;;3.80;99.90;;;;;;4944743;28;19922;-81
2024/02/28 08:41:44;;;;;;;;;;;4.00;99.90;;;;;;4961000;28;19925;-80
2024/02/28 08:44:10;;;;;;;;;;;4.00;99.90;;;;;;4943699;28;19918;-80
2024/02/28 08:46:36;;;;;;;;;;;4.00;99.90;;;;;;4943962;28;19973;-79
2024/02/28 08:49:03;;;;;;;;;;;4.10;99.90;;;;;;4943462;28;19914;-79
2024/02/28 08:51:29;;;;;;;;;;;4.10;99.90;;;;;;4923649;29;19919;-79
2024/02/28 08:53:55;;;;;;;;;;;4.10;99.90;;;;;;4954660;28;19918;-79
2024/02/28 08:56:21;;;;;;;;;;;4.10;99.90;;;;;;4963172;28;19914;-80
2024/02/28 08:58:47;;;;;;;;;;;4.20;99.90;;;;;;4936807;28;19968;-80
2024/02/28 09:01:13;;;;;;;;;;;4.20;99.90;;;;;;4970865;28;20036;-80
2024/02/28 09:03:39;;;;;;;;;;;4.20;99.90;;;;;;4962474;28;19918;-81
2024/02/28 09:06:07;;;;;;;;;;;4.30;99.90;;;;;;4944260;28;20259;-80
2024/02/28 09:08:42;;;;;;;;;;;4.20;99.90;;;;;;4947798;28;19977;-80
2024/02/28 09:11:08;;;;;;;;;;;4.30;99.90;;;;;;4973415;28;19921;-80
2024/02/28 09:13:35;;;;;;;;;;;4.40;99.90;;;;;;4950076;28;19917;-80
2024/02/28 09:16:01;;;;;;;;;;;4.40;99.90;;;;;;4950412;28;19918;-80
2024/02/28 09:18:27;;;;;;;;;;;4.50;99.90;;;;;;4948179;28;19984;-80
2024/02/28 09:20:53;;;;;;;;;;;4.60;99.90;;;;;;4927260;29;19962;-79
2024/02/28 09:23:23;;;;;;;;;;;4.60;99.90;;;;;;4929873;28;19937;-80
2024/02/28 09:25:49;;;;;;;;;;;4.70;99.90;;;;;;4962522;28;19914;-80
2024/02/28 09:28:17;;;;;;;;;;;4.80;99.90;;;;;;4947124;28;19948;-80
2024/02/28 09:30:43;;;;;;;;;;;4.80;99.90;;;;;;4964717;28;19921;-80
2024/02/28 09:33:09;;;;;;;;;;;4.80;99.90;;;;;;4949791;28;19922;-79
2024/02/28 09:35:37;;;;;;;;;;;4.80;99.90;;;;;;4967098;28;19914;-80
2024/02/28 09:38:03;;;;;;;;;;;4.80;99.90;;;;;;4958690;28;19917;-80
2024/02/28 09:40:29;;;;;;;;;;;4.80;99.90;;;;;;4965617;28;20961;-76
2024/02/28 09:43:00;;;;;;;;;;;4.90;99.90;;;;;;4962356;28;20004;-77
2024/02/28 09:45:26;;;;;;;;;;;5.10;99.90;;;;;;4941998;28;19922;-76
2024/02/28 09:47:52;;;;;;;;;;;5.20;99.90;;;;;;4975837;28;19914;-76
2024/02/28 09:50:19;;;;;;;;;;;5.40;99.90;;;;;;4960121;28;19972;-76
2024/02/28 09:52:44;;;;;;;;;;;5.50;99.90;;;;;;4977905;28;19921;-76
2024/02/28 09:55:10;;;;;;;;;;;5.70;99.90;;;;;;4946339;28;19918;-77
2024/02/28 09:57:36;;;;;;;;;;;5.80;99.90;;;;;;4963857;28;19917;-76
2024/02/28 10:00:02;;;;;;;;;;;5.80;99.90;;;;;;4991717;28;20235;-76
2024/02/28 10:02:28;;;;;;;;;;;6.00;99.90;;;;;;4967274;28;19917;-76
2024/02/28 10:04:54;;;;;;;;;;;5.90;99.90;;;;;;4970019;28;19965;-76
2024/02/28 10:07:19;;;;;;;;;;;6.00;99.90;;;;;;4953131;28;19917;-76
2024/02/28 10:09:46;;;;;;;;;;;6.10;99.90;;;;;;4958877;28;19925;-78
2024/02/28 10:12:11;;;;;;;;;;;6.10;99.90;;;;;;4971882;28;20012;-78
2024/02/28 10:14:38;;;;;;;;;;;6.10;99.90;;;;;;4961042;28;20008;-78
2024/02/28 10:17:04;;;;;;;;;;;6.20;99.90;;;;;;4978431;28;19914;-78
2024/02/28 10:19:30;;;;;;;;;;;6.20;99.90;;;;;;4978729;28;20350;-78
2024/02/28 10:21:55;;;;;;;;;;;6.20;99.90;;;;;;4953262;28;19922;-78
2024/02/28 10:24:24;;;;;;;;;;;6.30;99.90;;;;;;4957720;28;19967;-79
2024/02/28 10:26:55;;;;;;;;;;;6.30;99.90;;;;;;4962949;28;20635;-78
2024/02/28 10:29:21;;;;;;;;;;;6.30;99.90;;;;;;4948051;28;19917;-78
2024/02/28 10:31:46;;;;;;;;;;;6.40;99.90;;;;;;4963703;28;20668;-78
2024/02/28 10:34:12;;;;;;;;;;;6.50;99.90;;;;;;4978870;28;19968;-78
2024/02/28 10:36:38;;;;;;;;;;;6.50;99.90;;;;;;4961267;28;19913;-78
2024/02/28 10:39:04;;;;;;;;;;;6.50;99.90;;;;;;4972572;28;20299;-78
2024/02/28 10:41:30;;;;;;;;;;;6.60;99.90;;;;;;4965101;28;19953;-78
2024/02/28 10:43:56;;;;;;;;;;;6.60;99.90;;;;;;4952800;28;20737;-80
2024/02/28 10:46:23;;;;;;;;;;;6.70;99.90;;;;;;4933357;28;19918;-81
2024/02/28 10:48:54;;;;;;;;;;;6.60;99.90;;;;;;4971510;28;19918;-78
2024/02/28 10:51:24;;;;;;;;;;;6.60;99.90;;;;;;4993148;28;19917;-80
2024/02/28 10:53:50;;;;;;;;;;;6.30;99.90;;;;;;4947029;28;20067;-80
2024/02/28 10:56:16;;;;;;;;;;;6.30;99.90;;;;;;4960619;28;20351;-81
2024/02/28 10:58:52;;;;;;;;;;;6.30;99.90;;;;;;4976800;28;19921;-80
2024/02/28 11:01:18;;;;;;;;;;;6.30;99.90;;;;;;4963510;28;19925;-79
2024/02/28 11:03:44;;;;;;;;;;;6.30;99.90;;;;;;4963297;28;19921;-80
2024/02/28 11:06:17;;;;;;;;;;;6.20;99.90;;;;;;4995426;28;19921;-79
2024/02/28 11:08:45;;;;;;;;;;;6.10;99.90;;;;;;4948369;28;19914;-79
2024/02/28 11:11:13;;;;;;;;;;;5.90;99.90;;;;;;4948802;28;20342;-79
2024/02/28 11:13:39;;;;;;;;;;;5.90;99.90;;;;;;4962664;28;19929;-79
2024/02/28 11:16:08;;;;;;;;;;;5.90;99.90;;;;;;4963133;28;19917;-79
2024/02/28 11:18:34;;;;;;;;;;;5.90;99.90;;;;;;4963416;28;19918;-79
2024/02/28 11:20:59;;;;;;;;;;;5.90;99.90;;;;;;4979326;28;19918;-79
2024/02/28 11:23:26;;;;;;;;;;;5.90;99.90;;;;;;4977834;28;20257;-79
2024/02/28 11:25:51;;;;;;;;;;;5.90;99.90;;;;;;4979090;28;19979;-79
2024/02/28 11:28:24;;;;;;;;;;;5.90;99.90;;;;;;4971140;28;19949;-79
2024/02/28 11:30:49;;;;;;;;;;;5.90;99.90;;;;;;4975767;28;19922;-79
2024/02/28 11:33:15;;;;;;;;;;;5.80;99.90;;;;;;4946292;28;19925;-79
2024/02/28 11:35:42;;;;;;;;;;;5.80;99.90;;;;;;4946182;28;19921;-79
2024/02/28 11:38:10;;;;;;;;;;;5.80;99.90;;;;;;4978126;28;19918;-79
2024/02/28 11:40:35;;;;;;;;;;;5.90;99.90;;;;;;4962367;28;20326;-79
2024/02/28 11:43:03;;;;;;;;;;;5.90;99.90;;;;;;4957225;28;19938;-79
2024/02/28 11:45:30;;;;;;;;;;;5.90;99.90;;;;;;4959698;28;19930;-79
2024/02/28 11:47:55;;;;;;;;;;;5.90;99.90;;;;;;4927787;28;20455;-79
2024/02/28 11:50:21;;;;;;;;;;;6.00;99.90;;;;;;4974123;28;19970;-78
2024/02/28 11:52:47;;;;;;;;;;;5.90;99.90;;;;;;4996228;28;19913;-79
2024/02/28 11:55:13;;;;;;;;;;;6.00;99.90;;;;;;4980332;28;20314;-79
2024/02/28 11:57:40;;;;;;;;;;;6.00;99.90;;;;;;4957338;28;19918;-79
2024/02/28 12:00:14;;;;;;;;;;;6.00;99.90;;;;;;4959261;28;19980;-79
2024/02/28 12:02:40;;;;;;;;;;;6.10;99.90;;;;;;4974228;28;19961;-80
2024/02/28 12:05:09;;;;;;;;;;;5.90;99.90;;;;;;4970620;28;19985;-80
2024/02/28 12:07:35;;;;;;;;;;;5.90;99.90;;;;;;4994694;28;19981;-79
2024/02/28 12:10:00;;;;;;;;;;;6.00;99.90;;;;;;4971909;28;20214;-79
2024/02/28 12:12:29;;;;;;;;;;;6.00;99.90;;;;;;4955218;28;20006;-79
2024/02/28 12:14:58;;;;;;;;;;;6.10;99.90;;;;;;4993906;28;19937;-79
2024/02/28 12:17:24;;;;;;;;;;;6.10;99.90;;;;;;4958257;28;19969;-79
2024/02/28 12:19:50;;;;;;;;;;;6.10;99.90;;;;;;4962377;28;19914;-79
2024/02/28 12:22:16;;;;;;;;;;;6.40;99.90;;;;;;4963810;28;19933;-79
2024/02/28 12:24:42;;;;;;;;;;;6.50;99.90;;;;;;4957661;28;19914;-80
2024/02/28 12:27:07;;;;;;;;;;;6.60;99.90;;;;;;4948660;29;19922;-81
2024/02/28 12:29:33;;;;;;;;;;;6.50;99.90;;;;;;4952096;28;19917;-79
2024/02/28 12:31:59;;;;;;;;;;;6.40;99.90;;;;;;4941104;29;19929;-79
2024/02/28 12:34:24;;;;;;;;;;;6.40;99.90;;;;;;4944680;28;19918;-79
2024/02/28 12:36:51;;;;;;;;;;;6.40;99.90;;;;;;4945901;28;20001;-79
2024/02/28 12:39:17;;;;;;;;;;;6.30;99.90;;;;;;4945775;28;20012;-79
2024/02/28 12:41:42;;;;;;;;;;;6.40;99.90;;;;;;4969996;28;20335;-81
2024/02/28 12:44:08;;;;;;;;;;;6.50;99.90;;;;;;4972465;28;19917;-79
2024/02/28 12:46:34;;;;;;;;;;;6.50;99.90;;;;;;4979409;28;20018;-80
2024/02/28 12:48:59;;;;;;;;;;;6.60;99.90;;;;;;4961030;28;19914;-79
2024/02/28 12:51:37;;;;;;;;;;;6.70;99.90;;;;;;4948784;29;19929;-78
2024/02/28 12:54:03;;;;;;;;;;;6.70;99.90;;;;;;4941583;28;19925;-79
2024/02/28 12:56:29;;;;;;;;;;;6.70;99.90;;;;;;4946680;28;20326;-79
2024/02/28 12:58:54;;;;;;;;;;;6.70;99.90;;;;;;4954819;28;19922;-79
2024/02/28 13:01:20;;;;;;;;;;;6.80;99.90;;;;;;4946289;28;20402;-79
2024/02/28 13:03:46;;;;;;;;;;;6.90;99.90;;;;;;4928719;28;20335;-79
2024/02/28 13:06:11;;;;;;;;;;;6.80;99.90;;;;;;4928206;28;19914;-79
2024/02/28 13:08:37;;;;;;;;;;;6.80;99.90;;;;;;4960762;28;19957;-79
2024/02/28 13:11:03;;;;;;;;;;;6.90;99.90;;;;;;4955440;28;19926;-78
2024/02/28 13:13:29;;;;;;;;;;;7.20;99.90;;;;;;4958462;28;19918;-78
2024/02/28 13:15:55;;;;;;;;;;;7.60;99.90;;;;;;4959935;28;19962;-78
2024/02/28 13:18:20;;;;;;;;;;;8.00;99.90;;;;;;4960640;28;19968;-78
2024/02/28 13:20:46;;;;;;;;;;;8.70;99.90;;;;;;4960712;28;19961;-80
2024/02/28 13:23:12;;;;;;;;;;;8.80;99.90;;;;;;4878500;28;1985735;-80
2024/02/28 13:25:37;;;;;;;;;;;9.50;99.90;;;;;;4959933;28;19973;-80
2024/02/28 13:28:03;;;;;;;;;;;9.40;99.90;;;;;;4968590;28;19920;-80
2024/02/28 13:30:29;;;;;;;;;;;9.70;99.90;;;;;;4962662;28;19941;-80
2024/02/28 13:32:54;;;;;;;;;;;10.30;99.90;;;;;;4961761;28;19948;-79
2024/02/28 13:35:20;;;;;;;;;;;10.20;99.90;;;;;;4945710;29;19922;-79
2024/02/28 13:37:46;;;;;;;;;;;10.60;99.90;;;;;;4941653;29;19915;-80
2024/02/28 13:40:12;;;;;;;;;;;10.80;99.90;;;;;;4958941;29;19972;-80
2024/02/28 13:42:41;;;;;;;;;;;10.70;99.90;;;;;;4928763;28;20014;-80
2024/02/28 13:45:07;;;;;;;;;;;10.90;99.90;;;;;;4946927;28;20316;-79
2024/02/28 13:47:34;;;;;;;;;;;11.10;99.90;;;;;;4929897;28;19921;-79
2024/02/28 13:50:00;;;;;;;;;;;11.20;99.90;;;;;;4961378;28;19957;-79
2024/02/28 13:52:26;;;;;;;;;;;11.50;99.90;;;;;;4962021;28;19914;-79
2024/02/28 13:54:52;;;;;;;;;;;11.30;99.90;;;;;;4944898;28;19922;-79
2024/02/28 13:57:17;;;;;;;;;;;11.50;99.90;;;;;;4944940;28;19930;-80
2024/02/28 13:59:45;;;;;;;;;;;11.60;99.90;;;;;;4961044;28;19933;-79
2024/02/28 14:02:11;;;;;;;;;;;11.70;99.90;;;;;;4961681;28;19924;-79
2024/02/28 14:04:37;;;;;;;;;;;11.60;99.90;;;;;;4949274;28;20009;-79
2024/02/28 14:07:03;;;;;;;;;;;11.10;99.90;;;;;;4968988;28;19914;-80
2024/02/28 14:09:29;;;;;;;;;;;11.10;99.90;;;;;;4958642;28;19950;-79
2024/02/28 14:11:55;;;;;;;;;;;11.10;99.90;;;;;;4933876;28;20270;-79
2024/02/28 14:14:20;;;;;;;;;;;10.70;99.90;;;;;;4926091;28;19933;-80
2024/02/28 14:16:46;;;;;;;;;;;10.70;99.90;;;;;;4942194;28;19914;-80
2024/02/28 14:19:12;;;;;;;;;;;10.70;99.90;;;;;;4941524;28;19961;-80
2024/02/28 14:21:37;;;;;;;;;;;10.50;99.90;;;;;;4957624;28;19922;-79
2024/02/28 14:24:04;;;;;;;;;;;10.50;99.90;;;;;;4941433;28;19918;-79
2024/02/28 14:26:30;;;;;;;;;;;10.60;99.90;;;;;;4942839;29;20296;-79
2024/02/28 14:28:56;;;;;;;;;;;10.80;99.90;;;;;;4922624;29;19918;-79
2024/02/28 14:31:22;;;;;;;;;;;10.70;99.90;;;;;;4953779;28;19914;-80
2024/02/28 14:33:48;;;;;;;;;;;10.10;99.90;;;;;;4941411;28;20255;-78
2024/02/28 14:36:14;;;;;;;;;;;10.30;99.90;;;;;;4925528;28;20292;-79
2024/02/28 14:38:39;;;;;;;;;;;10.10;99.90;;;;;;4986704;28;19914;-79
2024/02/28 14:41:07;;;;;;;;;;;10.20;99.90;;;;;;4946723;28;19922;-79
2024/02/28 14:43:32;;;;;;;;;;;10.20;99.90;;;;;;4951310;28;19918;-79
2024/02/28 14:45:58;;;;;;;;;;;10.20;99.90;;;;;;4937809;29;20017;-78
2024/02/28 14:48:24;;;;;;;;;;;10.00;99.90;;;;;;4950699;28;19956;-79